createdAt,value
2018-11-04T00:00:23.079Z,18.75
2018-11-04T00:02:52.257Z,19.50
2018-11-04T00:05:55.184Z,20.12
2018-11-04T00:08:24.745Z,16.95
2018-11-04T00:11:34.144Z,19.85
2018-11-04T00:14:03.350Z,19.80
2018-11-04T00:16:33.067Z,20.48
2018-11-04T00:19:03.301Z,22.22
2018-11-04T00:21:36.439Z,18.30
2018-11-04T00:24:33.681Z,21.25
2018-11-04T00:27:03.598Z,18.52
2018-11-04T00:30:22.776Z,23.30
2018-11-04T00:32:52.176Z,19.12
2018-11-04T00:35:48.076Z,20.23
2018-11-04T00:38:18.332Z,21.80
2018-11-04T00:41:37.103Z,20.02
2018-11-04T00:44:06.662Z,20.35
2018-11-04T00:47:02.169Z,20.30
2018-11-04T00:49:31.831Z,21.12
2018-11-04T00:52:01.279Z,18.45
2018-11-04T00:55:07.372Z,22.45
2018-11-04T00:57:36.752Z,20.62
2018-11-04T01:00:33.322Z,22.82
2018-11-04T01:03:02.659Z,23.38
2018-11-04T01:08:54.109Z,22.52
2018-11-04T01:12:05.713Z,21.37
2018-11-04T01:14:34.830Z,24.65
2018-11-04T01:17:04.187Z,20.27
2018-11-04T01:20:07.856Z,20.60
2018-11-04T01:26:15.880Z,22.32
2018-11-04T01:28:45.989Z,20.35
2018-11-04T01:31:15.167Z,17.82
2018-11-04T01:34:30.864Z,17.98
2018-11-04T01:37:00.935Z,20.92
2018-11-04T01:40:12.995Z,20.05
2018-11-04T01:42:42.451Z,22.32
2018-11-04T01:46:01.169Z,19.57
2018-11-04T01:48:30.704Z,20.43
2018-11-04T01:50:59.846Z,17.67
2018-11-04T01:53:30.240Z,21.48
2018-11-04T01:55:59.681Z,20.50
2018-11-04T01:58:56.155Z,24.95
2018-11-04T02:01:25.345Z,25.72
2018-11-04T02:04:32.179Z,23.25
2018-11-04T02:07:01.637Z,21.15
2018-11-04T02:10:05.736Z,23.85
2018-11-04T02:12:35.770Z,23.05
2018-11-04T02:15:40.123Z,22.75
2018-11-04T02:18:09.551Z,20.52
2018-11-04T02:21:26.725Z,20.43
2018-11-04T02:23:55.933Z,22.17
2018-11-04T02:26:25.254Z,23.22
2018-11-04T02:28:55.352Z,25.00
2018-11-04T02:31:24.737Z,22.75
2018-11-04T02:34:41.104Z,24.50
2018-11-04T02:37:14.177Z,24.75
2018-11-04T02:40:38.212Z,21.37
2018-11-04T02:43:07.372Z,24.50
2018-11-04T02:46:04.267Z,24.20
2018-11-04T02:48:33.512Z,24.27
2018-11-04T02:51:39.529Z,24.45
2018-11-04T02:54:08.675Z,23.00
2018-11-04T02:57:25.036Z,22.60
2018-11-04T02:59:54.219Z,26.75
2018-11-04T03:02:23.340Z,22.98
2018-11-04T03:04:52.705Z,25.27
2018-11-04T03:07:21.929Z,21.93
2018-11-04T03:10:24.844Z,25.90
2018-11-04T03:12:54.864Z,21.90
2018-11-04T03:15:24.255Z,24.10
2018-11-04T03:17:53.547Z,24.87
2018-11-04T03:20:22.718Z,28.32
2018-11-04T03:22:51.791Z,30.17
2018-11-04T03:25:21.032Z,32.98
2018-11-04T03:27:51.551Z,30.05
2018-11-04T03:30:21.000Z,28.42
2018-11-04T03:32:50.200Z,28.70
2018-11-04T03:35:19.344Z,26.07
2018-11-04T03:37:48.766Z,29.50
2018-11-04T03:40:18.231Z,24.67
2018-11-04T03:42:47.339Z,29.85
2018-11-04T03:45:16.770Z,27.00
2018-11-04T03:47:45.960Z,27.07
2018-11-04T03:50:15.126Z,27.43
2018-11-04T03:52:44.442Z,25.95
2018-11-04T03:55:14.957Z,23.97
2018-11-04T03:57:44.187Z,25.77
2018-11-04T04:00:13.873Z,24.67
2018-11-04T04:02:44.111Z,25.40
2018-11-04T04:05:13.379Z,27.27
2018-11-04T04:07:42.588Z,26.57
2018-11-04T04:10:13.366Z,25.57
2018-11-04T04:12:44.295Z,27.30
2018-11-04T04:15:13.820Z,26.40
2018-11-04T04:17:43.188Z,22.17
2018-11-04T04:20:14.188Z,26.97
2018-11-04T04:22:44.215Z,24.00
2018-11-04T04:25:13.382Z,24.00
2018-11-04T04:27:42.464Z,23.20
2018-11-04T04:30:12.360Z,21.33
2018-11-04T04:32:42.196Z,23.80
2018-11-04T04:35:11.815Z,23.20
2018-11-04T04:37:41.963Z,23.17
2018-11-04T04:40:11.452Z,25.43
2018-11-04T04:42:40.772Z,24.67
2018-11-04T04:45:09.931Z,22.37
2018-11-04T04:47:39.196Z,24.43
2018-11-04T04:50:08.762Z,24.03
2018-11-04T04:52:37.899Z,23.90
2018-11-04T04:55:07.490Z,24.00
2018-11-04T04:57:36.685Z,26.23
2018-11-04T05:00:06.805Z,25.47
2018-11-04T05:02:36.172Z,27.17
2018-11-04T05:05:06.065Z,22.13
2018-11-04T05:07:35.877Z,23.93
2018-11-04T05:10:07.137Z,19.83
2018-11-04T05:12:36.519Z,21.47
2018-11-04T05:15:06.573Z,23.33
2018-11-04T05:17:36.164Z,23.87
2018-11-04T05:20:05.654Z,21.07
2018-11-04T05:22:35.181Z,26.50
2018-11-04T05:25:04.853Z,24.33
2018-11-04T05:27:34.271Z,25.10
2018-11-04T05:30:03.586Z,22.97
2018-11-04T05:32:32.766Z,22.40
2018-11-04T05:35:01.991Z,20.80
2018-11-04T05:37:31.530Z,22.90
2018-11-04T05:40:00.682Z,24.13
2018-11-04T05:42:30.536Z,22.63
2018-11-04T05:45:01.258Z,26.13
2018-11-04T05:47:30.851Z,23.17
2018-11-04T05:50:00.088Z,23.13
2018-11-04T05:52:29.262Z,24.90
2018-11-04T05:54:58.814Z,26.33
2018-11-04T05:57:28.129Z,24.13
2018-11-04T05:59:57.374Z,23.43
2018-11-04T06:02:26.960Z,26.97
2018-11-04T06:04:56.297Z,26.53
2018-11-04T06:07:25.568Z,25.37
2018-11-04T06:09:55.027Z,24.87
2018-11-04T06:12:24.839Z,29.40
2018-11-04T06:14:54.271Z,26.33
2018-11-04T06:17:23.621Z,24.33
2018-11-04T06:19:53.749Z,26.00
2018-11-04T06:22:22.919Z,26.97
2018-11-04T06:24:52.257Z,25.40
2018-11-04T06:27:22.912Z,23.50
2018-11-04T06:29:52.110Z,25.37
2018-11-04T06:32:21.327Z,26.10
2018-11-04T06:34:50.431Z,21.37
2018-11-04T06:37:20.454Z,26.30
2018-11-04T06:39:49.642Z,26.43
2018-11-04T06:42:19.001Z,25.03
2018-11-04T06:44:48.234Z,27.67
2018-11-04T06:47:18.012Z,27.37
2018-11-04T06:49:47.693Z,27.13
2018-11-04T06:52:16.850Z,29.33
2018-11-04T06:54:46.121Z,29.63
2018-11-04T06:57:15.358Z,29.93
2018-11-04T06:59:44.525Z,25.90
2018-11-04T07:02:13.991Z,27.20
2018-11-04T07:04:43.392Z,27.80
2018-11-04T07:07:13.334Z,34.93
2018-11-04T07:09:42.853Z,28.13
2018-11-04T07:12:12.100Z,31.50
2018-11-04T07:14:43.409Z,28.97
2018-11-04T07:17:13.584Z,29.57
2018-11-04T07:19:42.998Z,29.10
2018-11-04T07:22:15.829Z,28.83
2018-11-04T07:24:53.484Z,26.23
2018-11-04T07:27:25.000Z,27.93
2018-11-04T07:29:55.883Z,30.70
2018-11-04T07:32:25.634Z,27.70
2018-11-04T07:34:54.932Z,29.77
2018-11-04T07:37:24.355Z,26.93
2018-11-04T07:39:54.310Z,25.53
2018-11-04T07:42:23.830Z,27.67
2018-11-04T07:44:54.251Z,23.83
2018-11-04T07:47:24.179Z,26.53
2018-11-04T07:49:56.093Z,26.00
2018-11-04T07:52:31.333Z,29.27
2018-11-04T07:55:01.860Z,30.03
2018-11-04T07:57:31.017Z,30.77
2018-11-04T08:00:00.808Z,25.87
2018-11-04T08:02:31.226Z,24.73
2018-11-04T08:05:01.612Z,24.27
2018-11-04T08:07:31.333Z,26.70
2018-11-04T08:10:03.720Z,29.67
2018-11-04T08:12:34.444Z,28.73
2018-11-04T08:15:05.559Z,30.77
2018-11-04T08:17:35.820Z,29.20
2018-11-04T08:20:05.298Z,30.10
2018-11-04T08:22:35.184Z,28.67
2018-11-04T08:25:05.160Z,27.00
2018-11-04T08:27:35.094Z,31.43
2018-11-04T08:30:05.176Z,30.77
2018-11-04T08:32:34.638Z,29.60
2018-11-04T08:35:04.370Z,32.37
2018-11-04T08:37:35.589Z,30.17
2018-11-04T08:40:06.129Z,33.03
2018-11-04T08:42:35.796Z,29.47
2018-11-04T08:45:06.102Z,30.77
2018-11-04T08:47:35.902Z,33.73
2018-11-04T08:50:06.418Z,32.90
2018-11-04T08:52:36.869Z,31.63
2018-11-04T08:55:07.097Z,32.73
2018-11-04T08:57:37.107Z,29.63
2018-11-04T09:00:08.249Z,28.33
2018-11-04T09:02:38.772Z,32.20
2018-11-04T09:05:09.368Z,31.00
2018-11-04T09:07:40.967Z,33.00
2018-11-04T09:10:14.989Z,33.00
2018-11-04T09:12:47.661Z,32.73
2018-11-04T09:15:18.258Z,30.13
2018-11-04T09:17:48.177Z,33.13
2018-11-04T09:20:18.194Z,31.33
2018-11-04T09:22:49.437Z,32.00
2018-11-04T09:25:19.184Z,34.63
2018-11-04T09:27:48.754Z,33.83
2018-11-04T09:30:19.356Z,36.97
2018-11-04T09:32:49.080Z,34.20
2018-11-04T09:35:18.656Z,32.40
2018-11-04T09:37:48.229Z,35.17
2018-11-04T09:40:17.695Z,32.23
2018-11-04T09:42:47.640Z,31.23
2018-11-04T09:45:17.439Z,30.17
2018-11-04T09:47:48.247Z,35.07
2018-11-04T09:50:17.528Z,31.00
2018-11-04T09:52:47.228Z,29.20
2018-11-04T09:55:17.428Z,28.60
2018-11-04T09:57:46.664Z,31.57
2018-11-04T10:00:16.102Z,27.07
2018-11-04T10:02:45.192Z,29.80
2018-11-04T10:05:16.330Z,28.93
2018-11-04T10:07:46.551Z,28.93
2018-11-04T10:10:16.291Z,30.00
2018-11-04T10:12:46.331Z,27.60
2018-11-04T10:15:15.499Z,32.83
2018-11-04T10:17:46.311Z,27.83
2018-11-04T10:20:16.971Z,25.23
2018-11-04T10:22:46.259Z,27.07
2018-11-04T10:25:17.174Z,28.17
2018-11-04T10:27:46.922Z,26.47
2018-11-04T10:30:17.165Z,26.57
2018-11-04T10:32:46.747Z,25.10
2018-11-04T10:35:16.276Z,23.17
2018-11-04T10:37:45.446Z,26.07
2018-11-04T10:40:14.680Z,24.00
2018-11-04T10:42:46.076Z,21.63
2018-11-04T10:45:16.797Z,25.03
2018-11-04T10:47:46.342Z,21.90
2018-11-04T10:50:16.842Z,26.03
2018-11-04T10:52:46.219Z,23.13
2018-11-04T10:55:16.732Z,23.33
2018-11-04T10:57:47.110Z,22.50
2018-11-04T11:00:22.374Z,23.87
2018-11-04T11:02:52.634Z,24.23
2018-11-04T11:05:32.301Z,25.97
2018-11-04T11:10:46.597Z,22.53
2018-11-04T11:13:17.004Z,25.33
2018-11-04T11:15:46.208Z,26.07
2018-11-04T11:18:15.764Z,23.83
2018-11-04T11:20:45.243Z,23.67
2018-11-04T11:23:15.121Z,24.97
2018-11-04T11:25:45.543Z,24.07
2018-11-04T11:28:15.673Z,24.33
2018-11-04T11:30:45.206Z,23.37
2018-11-04T11:33:15.300Z,21.67
2018-11-04T11:35:47.683Z,23.10
2018-11-04T11:38:17.608Z,23.03
2018-11-04T11:40:46.928Z,26.90
2018-11-04T11:43:17.422Z,20.60
2018-11-04T11:45:47.193Z,21.37
2018-11-04T11:48:19.102Z,23.83
2018-11-04T11:50:50.204Z,23.53
2018-11-04T11:53:21.192Z,24.13
2018-11-04T11:55:52.622Z,26.70
2018-11-04T11:58:24.340Z,25.30
2018-11-04T12:00:54.309Z,25.47
2018-11-04T12:03:24.560Z,24.07
2018-11-04T12:05:56.324Z,26.83
2018-11-04T12:08:28.416Z,24.17
2018-11-04T12:10:59.181Z,23.53
2018-11-04T12:13:29.696Z,24.23
2018-11-04T12:16:00.354Z,24.13
2018-11-04T12:18:31.608Z,21.93
2018-11-04T12:22:32.463Z,23.83
2018-11-04T12:25:08.992Z,24.77
2018-11-04T12:27:45.451Z,25.60
2018-11-04T12:30:16.047Z,24.53
2018-11-04T12:32:48.633Z,27.73
2018-11-04T12:35:18.198Z,27.50
2018-11-04T12:37:49.193Z,23.97
2018-11-04T12:40:19.126Z,23.93
2018-11-04T12:42:51.148Z,25.17
2018-11-04T12:45:21.680Z,36.57
2018-11-04T12:47:53.728Z,29.93
2018-11-04T12:50:23.138Z,26.73
2018-11-04T12:52:53.926Z,25.67
2018-11-04T12:55:27.439Z,22.83
2018-11-04T12:57:56.828Z,23.67
2018-11-04T13:00:26.788Z,29.37
2018-11-04T13:02:56.366Z,25.50
2018-11-04T13:05:26.614Z,23.33
2018-11-04T13:07:56.972Z,26.43
2018-11-04T13:10:26.387Z,25.67
2018-11-04T13:13:01.314Z,26.10
2018-11-04T13:15:31.974Z,28.87
2018-11-04T13:18:02.424Z,33.40
2018-11-04T13:23:07.562Z,28.40
2018-11-04T13:25:39.611Z,29.20
2018-11-04T13:28:09.277Z,25.70
2018-11-04T13:30:39.528Z,27.57
2018-11-04T13:33:09.445Z,28.63
2018-11-04T13:35:39.591Z,34.80
2018-11-04T13:38:09.315Z,31.67
2018-11-04T13:40:38.847Z,29.30
2018-11-04T13:43:09.279Z,27.83
2018-11-04T13:45:39.193Z,30.63
2018-11-04T13:48:09.431Z,33.73
2018-11-04T13:50:40.226Z,26.97
2018-11-04T13:53:13.660Z,28.47
2018-11-04T13:55:43.728Z,25.40
2018-11-04T13:58:13.530Z,23.10
2018-11-04T14:00:42.961Z,25.53
2018-11-04T14:03:12.987Z,27.90
2018-11-04T14:05:46.240Z,25.80
2018-11-04T14:08:16.065Z,28.67
2018-11-04T14:10:46.210Z,23.90
2018-11-04T14:14:02.104Z,29.77
2018-11-04T14:16:34.540Z,25.43
2018-11-04T14:19:46.155Z,28.43
2018-11-04T14:22:15.631Z,28.53
2018-11-04T14:25:15.435Z,28.70
2018-11-04T14:27:51.310Z,42.57
2018-11-04T14:30:42.495Z,31.47
2018-11-04T14:33:13.115Z,35.33
2018-11-04T14:35:43.551Z,40.77
2018-11-04T14:38:40.623Z,30.50
2018-11-04T14:41:10.805Z,24.93
2018-11-04T14:44:08.021Z,24.83
2018-11-04T14:46:44.470Z,26.40
2018-11-04T14:49:58.563Z,26.27
2018-11-04T14:52:29.404Z,29.00
2018-11-04T14:55:29.295Z,26.73
2018-11-04T14:57:59.757Z,25.63
2018-11-04T15:00:37.375Z,28.47
2018-11-04T15:03:07.760Z,25.20
2018-11-04T15:05:37.260Z,23.53
2018-11-04T15:08:36.093Z,27.23
2018-11-04T15:11:06.436Z,31.23
2018-11-04T15:13:36.206Z,28.27
2018-11-04T15:16:05.721Z,30.17
2018-11-04T15:18:35.831Z,30.50
2018-11-04T15:21:05.285Z,30.60
2018-11-04T15:23:34.579Z,28.43
2018-11-04T15:26:03.936Z,31.63
2018-11-04T15:28:35.496Z,32.53
2018-11-04T15:33:45.796Z,33.60
2018-11-04T15:36:17.065Z,33.07
2018-11-04T15:38:49.369Z,35.07
2018-11-04T15:41:21.632Z,36.23
2018-11-04T15:43:51.683Z,37.87
2018-11-04T15:46:23.421Z,36.40
2018-11-04T15:48:52.827Z,34.50
2018-11-04T15:51:23.596Z,30.00
2018-11-04T15:53:56.721Z,36.53
2018-11-04T15:56:28.996Z,32.37
2018-11-04T15:58:59.999Z,35.67
2018-11-04T16:01:36.738Z,43.27
2018-11-04T16:04:07.282Z,36.47
2018-11-04T16:06:37.709Z,34.10
2018-11-04T16:09:11.356Z,37.23
2018-11-04T16:11:41.181Z,30.57
2018-11-04T16:14:11.471Z,34.93
2018-11-04T16:16:41.716Z,35.93
2018-11-04T16:19:11.355Z,34.47
2018-11-04T16:21:43.096Z,31.27
2018-11-04T16:24:13.572Z,35.30
2018-11-04T16:26:47.088Z,31.97
2018-11-04T16:29:21.207Z,35.70
2018-11-04T16:31:50.460Z,33.73
2018-11-04T16:34:20.624Z,34.80
2018-11-04T16:36:50.595Z,33.73
2018-11-04T16:39:27.671Z,34.73
2018-11-04T16:41:57.804Z,40.27
2018-11-04T16:44:28.807Z,38.33
2018-11-04T16:46:59.469Z,42.00
2018-11-04T16:49:30.347Z,34.50
2018-11-04T16:52:01.044Z,36.40
2018-11-04T16:54:37.638Z,36.20
2018-11-04T16:57:10.016Z,48.83
2018-11-04T16:59:41.662Z,54.50
2018-11-04T17:03:41.360Z,52.57
2018-11-04T17:06:14.465Z,48.50
2018-11-04T17:08:48.420Z,41.57
2018-11-04T17:11:19.191Z,41.67
2018-11-04T17:13:49.734Z,44.50
2018-11-04T17:16:18.905Z,46.57
2018-11-04T17:18:50.701Z,40.03
2018-11-04T17:21:27.157Z,41.77
2018-11-04T17:24:03.631Z,46.53
2018-11-04T17:26:36.819Z,51.87
2018-11-04T17:29:09.724Z,41.60
2018-11-04T17:31:39.373Z,43.27
2018-11-04T17:34:08.568Z,42.97
2018-11-04T17:36:39.580Z,45.23
2018-11-04T17:39:13.012Z,57.23
2018-11-04T17:41:43.033Z,41.20
2018-11-04T17:44:14.426Z,41.93
2018-11-04T17:46:47.727Z,43.17
2018-11-04T17:49:19.457Z,43.00
2018-11-04T17:51:50.780Z,41.73
2018-11-04T17:54:27.647Z,45.63
2018-11-04T17:56:59.256Z,42.37
2018-11-04T17:59:29.310Z,39.63
2018-11-04T18:02:01.257Z,42.63
2018-11-04T18:04:33.336Z,41.17
2018-11-04T18:07:04.364Z,40.43
2018-11-04T18:09:34.216Z,40.10
2018-11-04T18:12:03.868Z,33.80
2018-11-04T18:14:33.455Z,40.27
2018-11-04T18:17:04.360Z,40.30
2018-11-04T18:19:34.301Z,55.03
2018-11-04T18:22:03.778Z,44.00
2018-11-04T18:24:34.374Z,59.80
2018-11-04T18:27:07.086Z,60.13
2018-11-04T18:29:37.762Z,45.33
2018-11-04T18:32:07.659Z,43.80
2018-11-04T18:34:40.481Z,51.77
2018-11-04T18:37:13.548Z,44.93
2018-11-04T18:39:43.533Z,40.90
2018-11-04T18:42:14.063Z,44.80
2018-11-04T18:44:46.267Z,43.30
2018-11-04T18:47:19.753Z,42.00
2018-11-04T18:50:28.174Z,40.60
2018-11-04T18:52:58.439Z,35.37
2018-11-04T18:55:30.263Z,35.70
2018-11-04T18:58:46.198Z,35.47
2018-11-04T19:01:17.413Z,33.00
2018-11-04T19:04:36.536Z,36.47
2018-11-04T19:07:16.082Z,35.97
2018-11-04T19:10:16.490Z,34.83
2018-11-04T19:16:07.706Z,33.83
2018-11-04T19:18:37.654Z,32.87
2018-11-04T19:21:46.774Z,31.73
2018-11-04T19:24:16.397Z,30.10
2018-11-04T19:26:59.665Z,31.27
2018-11-04T19:29:29.291Z,30.33
2018-11-04T19:31:59.733Z,29.23
2018-11-04T19:34:55.316Z,33.40
2018-11-04T19:37:25.695Z,31.90
2018-11-04T19:40:21.519Z,30.27
2018-11-04T19:42:51.268Z,33.30
2018-11-04T19:46:07.588Z,27.47
2018-11-04T19:48:42.820Z,30.27
2018-11-04T19:51:45.989Z,34.50
2018-11-04T19:54:15.641Z,29.73
2018-11-04T19:57:07.740Z,30.93
2018-11-04T19:59:38.748Z,32.43
2018-11-04T20:02:08.653Z,29.23
2018-11-04T20:05:15.245Z,31.67
2018-11-04T20:10:55.656Z,33.40
2018-11-04T20:13:31.159Z,32.20
2018-11-04T20:16:22.700Z,31.30
2018-11-04T20:18:58.196Z,36.40
2018-11-04T20:21:55.288Z,32.27
2018-11-04T20:24:31.583Z,35.77
2018-11-04T20:27:00.755Z,35.53
2018-11-04T20:29:31.183Z,31.10
2018-11-04T20:34:41.048Z,34.17
2018-11-04T20:37:10.311Z,29.97
2018-11-04T20:39:46.285Z,34.80
2018-11-04T20:42:15.932Z,33.23
2018-11-04T20:45:33.760Z,33.80
2018-11-04T20:48:09.901Z,28.27
2018-11-04T20:51:13.907Z,29.47
2018-11-04T20:53:46.103Z,31.70
2018-11-04T20:57:03.242Z,30.37
2018-11-04T20:59:34.458Z,29.00
2018-11-04T21:02:33.842Z,33.73
2018-11-04T21:05:07.135Z,32.30
2018-11-04T21:07:39.818Z,37.20
2018-11-04T21:10:39.363Z,34.90
2018-11-04T21:13:09.458Z,31.43
2018-11-04T21:16:09.432Z,35.00
2018-11-04T21:18:39.361Z,34.67
2018-11-04T21:21:48.525Z,33.93
2018-11-04T21:24:18.012Z,35.13
2018-11-04T21:27:14.405Z,39.23
2018-11-04T21:29:51.652Z,45.27
2018-11-04T21:32:22.220Z,42.73
2018-11-04T21:35:38.416Z,46.50
2018-11-04T21:38:12.194Z,46.90
2018-11-04T21:41:29.372Z,48.13
2018-11-04T21:44:01.878Z,49.93
2018-11-04T21:46:31.210Z,41.63
2018-11-04T21:49:00.809Z,39.90
2018-11-04T21:51:31.325Z,38.40
2018-11-04T21:54:01.078Z,34.27
2018-11-04T21:56:31.164Z,31.07
2018-11-04T21:59:01.731Z,30.90
2018-11-04T22:02:17.593Z,31.43
2018-11-04T22:04:47.346Z,29.30
2018-11-04T22:07:44.315Z,31.87
2018-11-04T22:10:14.848Z,37.63
2018-11-04T22:12:44.295Z,27.13
2018-11-04T22:15:38.116Z,34.90
2018-11-04T22:18:07.434Z,33.80
2018-11-04T22:20:37.342Z,30.63
2018-11-04T22:23:07.168Z,30.67
2018-11-04T22:25:36.442Z,38.63
2018-11-04T22:28:35.753Z,28.93
2018-11-04T22:31:06.451Z,29.10
2018-11-04T22:34:03.709Z,34.40
2018-11-04T22:36:34.669Z,31.23
2018-11-04T22:39:06.564Z,30.23
2018-11-04T22:42:13.861Z,33.33
2018-11-04T22:44:43.356Z,31.17
2018-11-04T22:47:53.083Z,38.83
2018-11-04T22:50:23.315Z,30.73
2018-11-04T22:52:52.738Z,33.80
2018-11-04T22:56:12.285Z,33.37
2018-11-04T22:58:41.928Z,32.83
2018-11-04T23:01:11.149Z,33.07
2018-11-04T23:03:40.637Z,36.67
2018-11-04T23:06:10.459Z,31.67
2018-11-04T23:08:40.778Z,32.30
2018-11-04T23:11:56.748Z,29.17
2018-11-04T23:14:27.652Z,34.80
2018-11-04T23:16:56.787Z,30.00
2018-11-04T23:19:27.245Z,34.80
2018-11-04T23:21:56.390Z,40.63
2018-11-04T23:24:52.428Z,36.37
2018-11-04T23:27:22.315Z,32.27
2018-11-04T23:29:52.164Z,41.63
2018-11-04T23:32:51.317Z,30.33
2018-11-04T23:35:20.669Z,32.10
2018-11-04T23:37:49.961Z,32.87
2018-11-04T23:40:19.184Z,32.20
2018-11-04T23:42:52.746Z,28.13
2018-11-04T23:45:21.955Z,28.60
2018-11-04T23:48:30.227Z,28.33
2018-11-04T23:50:59.371Z,27.37
2018-11-04T23:53:28.884Z,27.53
2018-11-04T23:55:58.182Z,33.10
2018-11-04T23:58:27.276Z,32.43
